sensor_id;sensor_type;location;lat;lon;timestamp;pressure;altitude;pressure_sealevel;temperature;humidity
55490;BME280;44029;52.956;4.772;2023-04-24T00:02:23;99957.59;;;12.65;100.00
55490;BME280;44029;52.956;4.772;2023-04-24T00:04:49;99948.50;;;12.69;100.00
55490;BME280;44029;52.956;4.772;2023-04-24T00:07:14;99950.34;;;12.79;100.00
55490;BME280;44029;52.956;4.772;2023-04-24T00:09:42;99950.97;;;12.71;100.00
55490;BME280;44029;52.956;4.772;2023-04-24T00:12:07;99951.00;;;12.66;100.00
55490;BME280;44029;52.956;4.772;2023-04-24T00:14:32;99943.34;;;12.63;100.00
55490;BME280;44029;52.956;4.772;2023-04-24T00:16:58;99948.31;;;12.61;100.00
55490;BME280;44029;52.956;4.772;2023-04-24T00:19:23;99945.88;;;12.49;100.00
55490;BME280;44029;52.956;4.772;2023-04-24T00:21:49;99942.97;;;12.35;100.00
55490;BME280;44029;52.956;4.772;2023-04-24T00:24:17;99947.88;;;12.38;100.00
55490;BME280;44029;52.956;4.772;2023-04-24T00:26:43;99947.34;;;12.36;100.00
55490;BME280;44029;52.956;4.772;2023-04-24T00:29:08;99954.78;;;12.35;100.00
55490;BME280;44029;52.956;4.772;2023-04-24T00:31:34;99952.22;;;12.49;100.00
55490;BME280;44029;52.956;4.772;2023-04-24T00:34:00;99953.06;;;12.45;100.00
55490;BME280;44029;52.956;4.772;2023-04-24T00:36:26;99942.47;;;12.28;100.00
55490;BME280;44029;52.956;4.772;2023-04-24T00:38:52;99945.19;;;12.33;100.00
55490;BME280;44029;52.956;4.772;2023-04-24T00:41:17;99945.22;;;12.28;100.00
55490;BME280;44029;52.956;4.772;2023-04-24T00:43:43;99945.22;;;12.28;100.00
55490;BME280;44029;52.956;4.772;2023-04-24T00:46:09;99950.56;;;12.48;100.00
55490;BME280;44029;52.956;4.772;2023-04-24T00:48:34;99944.03;;;12.39;100.00
55490;BME280;44029;52.956;4.772;2023-04-24T00:51:00;99949.63;;;12.24;100.00
55490;BME280;44029;52.956;4.772;2023-04-24T00:53:25;99950.16;;;12.26;100.00
55490;BME280;44029;52.956;4.772;2023-04-24T00:55:50;99941.84;;;12.36;100.00
55490;BME280;44029;52.956;4.772;2023-04-24T00:58:16;99943.81;;;12.30;100.00
55490;BME280;44029;52.956;4.772;2023-04-24T01:00:42;99946.28;;;12.32;100.00
55490;BME280;44029;52.956;4.772;2023-04-24T01:03:08;99943.78;;;12.35;100.00
55490;BME280;44029;52.956;4.772;2023-04-24T01:05:33;99946.00;;;12.33;100.00
55490;BME280;44029;52.956;4.772;2023-04-24T01:07:59;99941.13;;;12.25;100.00
55490;BME280;44029;52.956;4.772;2023-04-24T01:10:26;99948.38;;;12.45;100.00
55490;BME280;44029;52.956;4.772;2023-04-24T01:12:52;99939.69;;;12.33;100.00
55490;BME280;44029;52.956;4.772;2023-04-24T01:15:18;99947.66;;;12.34;100.00
55490;BME280;44029;52.956;4.772;2023-04-24T01:17:43;99942.63;;;12.42;100.00
55490;BME280;44029;52.956;4.772;2023-04-24T01:20:09;99948.06;;;12.52;100.00
55490;BME280;44029;52.956;4.772;2023-04-24T01:22:36;99949.38;;;12.60;100.00
55490;BME280;44029;52.956;4.772;2023-04-24T01:25:01;99944.25;;;12.48;100.00
55490;BME280;44029;52.956;4.772;2023-04-24T01:27:27;99943.13;;;12.49;100.00
55490;BME280;44029;52.956;4.772;2023-04-24T01:29:53;99941.44;;;12.58;100.00
55490;BME280;44029;52.956;4.772;2023-04-24T01:32:18;99941.66;;;12.67;100.00
55490;BME280;44029;52.956;4.772;2023-04-24T01:34:45;99942.19;;;12.69;100.00
55490;BME280;44029;52.956;4.772;2023-04-24T01:37:10;99944.50;;;12.51;100.00
55490;BME280;44029;52.956;4.772;2023-04-24T01:39:36;99939.84;;;12.47;100.00
55490;BME280;44029;52.956;4.772;2023-04-24T01:42:01;99947.25;;;12.51;100.00
55490;BME280;44029;52.956;4.772;2023-04-24T01:44:27;99947.19;;;12.62;100.00
55490;BME280;44029;52.956;4.772;2023-04-24T01:46:54;99945.03;;;12.59;100.00
55490;BME280;44029;52.956;4.772;2023-04-24T01:49:20;99947.59;;;12.40;100.00
55490;BME280;44029;52.956;4.772;2023-04-24T01:51:45;99949.16;;;12.51;100.00
55490;BME280;44029;52.956;4.772;2023-04-24T01:54:12;99955.94;;;12.64;100.00
55490;BME280;44029;52.956;4.772;2023-04-24T01:56:40;99967.97;;;12.73;100.00
55490;BME280;44029;52.956;4.772;2023-04-24T01:59:09;99968.47;;;12.80;100.00
55490;BME280;44029;52.956;4.772;2023-04-24T02:01:35;99962.38;;;12.49;100.00
55490;BME280;44029;52.956;4.772;2023-04-24T02:04:04;99959.41;;;12.80;100.00
55490;BME280;44029;52.956;4.772;2023-04-24T02:06:30;99964.03;;;12.50;100.00
55490;BME280;44029;52.956;4.772;2023-04-24T02:08:59;99958.75;;;12.59;100.00
55490;BME280;44029;52.956;4.772;2023-04-24T02:11:25;99963.53;;;12.43;100.00
55490;BME280;44029;52.956;4.772;2023-04-24T02:13:50;99968.41;;;12.51;100.00
55490;BME280;44029;52.956;4.772;2023-04-24T02:16:17;99968.91;;;12.58;100.00
55490;BME280;44029;52.956;4.772;2023-04-24T02:18:42;99970.34;;;12.45;100.00
55490;BME280;44029;52.956;4.772;2023-04-24T02:21:07;99965.22;;;12.33;100.00
55490;BME280;44029;52.956;4.772;2023-04-24T02:23:33;99972.06;;;12.36;100.00
55490;BME280;44029;52.956;4.772;2023-04-24T02:25:58;99980.94;;;12.23;100.00
55490;BME280;44029;52.956;4.772;2023-04-24T02:28:23;99980.03;;;12.37;100.00
55490;BME280;44029;52.956;4.772;2023-04-24T02:30:50;99983.34;;;12.34;100.00
55490;BME280;44029;52.956;4.772;2023-04-24T02:33:15;99976.03;;;12.14;100.00
55490;BME280;44029;52.956;4.772;2023-04-24T02:35:41;99983.94;;;12.26;100.00
55490;BME280;44029;52.956;4.772;2023-04-24T02:38:06;99980.38;;;12.21;100.00
55490;BME280;44029;52.956;4.772;2023-04-24T02:40:31;99985.34;;;12.18;100.00
55490;BME280;44029;52.956;4.772;2023-04-24T02:42:57;99992.19;;;12.21;100.00
55490;BME280;44029;52.956;4.772;2023-04-24T02:45:22;99987.88;;;12.05;100.00
55490;BME280;44029;52.956;4.772;2023-04-24T02:47:47;99993.59;;;12.13;100.00
55490;BME280;44029;52.956;4.772;2023-04-24T02:50:13;99991.13;;;12.12;100.00
55490;BME280;44029;52.956;4.772;2023-04-24T02:52:38;99996.91;;;12.10;100.00
55490;BME280;44029;52.956;4.772;2023-04-24T02:55:04;99997.69;;;12.21;100.00
55490;BME280;44029;52.956;4.772;2023-04-24T02:57:30;100001.84;;;12.13;100.00
55490;BME280;44029;52.956;4.772;2023-04-24T02:59:55;99999.09;;;12.08;100.00
55490;BME280;44029;52.956;4.772;2023-04-24T03:02:20;99996.88;;;12.21;100.00
55490;BME280;44029;52.956;4.772;2023-04-24T03:04:46;99993.84;;;12.17;100.00
55490;BME280;44029;52.956;4.772;2023-04-24T03:07:13;99995.78;;;12.16;100.00
55490;BME280;44029;52.956;4.772;2023-04-24T03:09:38;100005.69;;;12.12;100.00
55490;BME280;44029;52.956;4.772;2023-04-24T03:12:04;100006.75;;;12.22;100.00
55490;BME280;44029;52.956;4.772;2023-04-24T03:14:29;99996.97;;;12.00;100.00
55490;BME280;44029;52.956;4.772;2023-04-24T03:16:56;100010.41;;;12.07;100.00
55490;BME280;44029;52.956;4.772;2023-04-24T03:19:21;100014.19;;;12.16;100.00
55490;BME280;44029;52.956;4.772;2023-04-24T03:21:47;100018.03;;;12.20;100.00
55490;BME280;44029;52.956;4.772;2023-04-24T03:24:12;100017.16;;;12.25;100.00
55490;BME280;44029;52.956;4.772;2023-04-24T03:26:38;100017.44;;;12.23;100.00
55490;BME280;44029;52.956;4.772;2023-04-24T03:29:03;100007.88;;;12.15;100.00
55490;BME280;44029;52.956;4.772;2023-04-24T03:31:29;100014.50;;;12.04;100.00
55490;BME280;44029;52.956;4.772;2023-04-24T03:33:54;100015.03;;;12.11;100.00
55490;BME280;44029;52.956;4.772;2023-04-24T03:36:19;100013.41;;;12.05;100.00
55490;BME280;44029;52.956;4.772;2023-04-24T03:38:45;100013.72;;;11.88;100.00
55490;BME280;44029;52.956;4.772;2023-04-24T03:41:11;100018.38;;;11.93;100.00
55490;BME280;44029;52.956;4.772;2023-04-24T03:43:37;100014.47;;;12.14;100.00
55490;BME280;44029;52.956;4.772;2023-04-24T03:46:03;100023.25;;;12.16;100.00
55490;BME280;44029;52.956;4.772;2023-04-24T03:48:29;100026.56;;;12.08;100.00
55490;BME280;44029;52.956;4.772;2023-04-24T03:50:54;100029.91;;;12.00;100.00
55490;BME280;44029;52.956;4.772;2023-04-24T03:53:20;100029.38;;;11.83;100.00
55490;BME280;44029;52.956;4.772;2023-04-24T03:55:45;100030.09;;;12.14;100.00
55490;BME280;44029;52.956;4.772;2023-04-24T03:58:11;100030.47;;;11.82;100.00
55490;BME280;44029;52.956;4.772;2023-04-24T04:00:37;100033.78;;;11.73;100.00
55490;BME280;44029;52.956;4.772;2023-04-24T04:03:03;100032.13;;;11.77;100.00
55490;BME280;44029;52.956;4.772;2023-04-24T04:05:28;100035.41;;;11.74;100.00
55490;BME280;44029;52.956;4.772;2023-04-24T04:07:54;100033.22;;;11.71;100.00
55490;BME280;44029;52.956;4.772;2023-04-24T04:10:20;100040.38;;;11.67;100.00
55490;BME280;44029;52.956;4.772;2023-04-24T04:12:45;100052.19;;;11.63;100.00
55490;BME280;44029;52.956;4.772;2023-04-24T04:15:11;100052.72;;;11.49;100.00
55490;BME280;44029;52.956;4.772;2023-04-24T04:17:36;100047.53;;;11.53;100.00
55490;BME280;44029;52.956;4.772;2023-04-24T04:20:03;100058.50;;;11.68;100.00
55490;BME280;44029;52.956;4.772;2023-04-24T04:22:32;100061.78;;;11.34;100.00
55490;BME280;44029;52.956;4.772;2023-04-24T04:24:57;100068.38;;;11.28;100.00
55490;BME280;44029;52.956;4.772;2023-04-24T04:27:23;100063.47;;;11.20;100.00
55490;BME280;44029;52.956;4.772;2023-04-24T04:29:48;100060.69;;;10.99;100.00
55490;BME280;44029;52.956;4.772;2023-04-24T04:32:13;100070.31;;;11.12;100.00
55490;BME280;44029;52.956;4.772;2023-04-24T04:34:40;100070.03;;;11.03;100.00
55490;BME280;44029;52.956;4.772;2023-04-24T04:37:05;100074.91;;;10.91;100.00
55490;BME280;44029;52.956;4.772;2023-04-24T04:39:31;100080.66;;;10.74;100.00
55490;BME280;44029;52.956;4.772;2023-04-24T04:41:56;100088.34;;;10.77;100.00
55490;BME280;44029;52.956;4.772;2023-04-24T04:44:21;100108.00;;;10.69;100.00
55490;BME280;44029;52.956;4.772;2023-04-24T04:46:48;100110.72;;;10.54;100.00
55490;BME280;44029;52.956;4.772;2023-04-24T04:49:14;100114.72;;;10.36;100.00
55490;BME280;44029;52.956;4.772;2023-04-24T04:51:42;100108.47;;;10.45;100.00
55490;BME280;44029;52.956;4.772;2023-04-24T04:54:07;100113.09;;;10.40;100.00
55490;BME280;44029;52.956;4.772;2023-04-24T04:56:32;100121.88;;;10.37;100.00
55490;BME280;44029;52.956;4.772;2023-04-24T04:58:58;100125.81;;;10.61;100.00
55490;BME280;44029;52.956;4.772;2023-04-24T05:01:24;100132.88;;;10.52;100.00
55490;BME280;44029;52.956;4.772;2023-04-24T05:03:50;100127.47;;;10.62;100.00
55490;BME280;44029;52.956;4.772;2023-04-24T05:06:16;100123.34;;;10.65;100.00
55490;BME280;44029;52.956;4.772;2023-04-24T05:08:42;100132.09;;;10.62;100.00
55490;BME280;44029;52.956;4.772;2023-04-24T05:11:07;100129.06;;;10.53;100.00
55490;BME280;44029;52.956;4.772;2023-04-24T05:13:32;100143.34;;;10.66;100.00
55490;BME280;44029;52.956;4.772;2023-04-24T05:15:58;100144.72;;;10.63;100.00
55490;BME280;44029;52.956;4.772;2023-04-24T05:18:24;100149.34;;;10.57;100.00
55490;BME280;44029;52.956;4.772;2023-04-24T05:20:49;100147.34;;;10.42;100.00
55490;BME280;44029;52.956;4.772;2023-04-24T05:23:14;100153.47;;;10.65;100.00
55490;BME280;44029;52.956;4.772;2023-04-24T05:25:40;100151.34;;;10.77;100.00
55490;BME280;44029;52.956;4.772;2023-04-24T05:28:06;100150.56;;;10.92;100.00
55490;BME280;44029;52.956;4.772;2023-04-24T05:30:32;100145.03;;;10.77;100.00
55490;BME280;44029;52.956;4.772;2023-04-24T05:32:57;100151.38;;;10.93;100.00
55490;BME280;44029;52.956;4.772;2023-04-24T05:35:22;100154.44;;;11.01;100.00
55490;BME280;44029;52.956;4.772;2023-04-24T05:37:48;100167.34;;;11.11;100.00
55490;BME280;44029;52.956;4.772;2023-04-24T05:40:13;100164.22;;;10.82;100.00
55490;BME280;44029;52.956;4.772;2023-04-24T05:42:39;100174.94;;;10.89;100.00
55490;BME280;44029;52.956;4.772;2023-04-24T05:45:05;100164.56;;;10.96;100.00
55490;BME280;44029;52.956;4.772;2023-04-24T05:47:31;100174.94;;;10.89;100.00
55490;BME280;44029;52.956;4.772;2023-04-24T05:49:56;100168.72;;;11.09;100.00
55490;BME280;44029;52.956;4.772;2023-04-24T05:52:21;100188.41;;;11.00;100.00
55490;BME280;44029;52.956;4.772;2023-04-24T05:54:47;100194.41;;;10.97;100.00
55490;BME280;44029;52.956;4.772;2023-04-24T05:57:12;100191.19;;;11.16;100.00
55490;BME280;44029;52.956;4.772;2023-04-24T05:59:38;100194.47;;;11.08;100.00
55490;BME280;44029;52.956;4.772;2023-04-24T06:02:04;100200.75;;;11.08;100.00
55490;BME280;44029;52.956;4.772;2023-04-24T06:04:29;100208.19;;;11.23;100.00
55490;BME280;44029;52.956;4.772;2023-04-24T06:06:54;100204.13;;;11.41;100.00
55490;BME280;44029;52.956;4.772;2023-04-24T06:09:23;100210.47;;;11.52;100.00
55490;BME280;44029;52.956;4.772;2023-04-24T06:11:49;100205.22;;;11.40;100.00
55490;BME280;44029;52.956;4.772;2023-04-24T06:14:17;100212.41;;;11.51;100.00
55490;BME280;44029;52.956;4.772;2023-04-24T06:16:43;100210.75;;;11.55;100.00
55490;BME280;44029;52.956;4.772;2023-04-24T06:19:08;100221.97;;;11.44;100.00
55490;BME280;44029;52.956;4.772;2023-04-24T06:21:33;100223.34;;;11.56;100.00
55490;BME280;44029;52.956;4.772;2023-04-24T06:23:59;100223.38;;;11.51;100.00
55490;BME280;44029;52.956;4.772;2023-04-24T06:26:24;100229.13;;;11.80;100.00
55490;BME280;44029;52.956;4.772;2023-04-24T06:28:51;100228.88;;;11.72;100.00
55490;BME280;44029;52.956;4.772;2023-04-24T06:31:19;100237.91;;;11.52;100.00
55490;BME280;44029;52.956;4.772;2023-04-24T06:33:44;100248.59;;;11.58;100.00
55490;BME280;44029;52.956;4.772;2023-04-24T06:36:10;100250.56;;;11.84;100.00
55490;BME280;44029;52.956;4.772;2023-04-24T06:38:35;100252.75;;;11.66;100.00
55490;BME280;44029;52.956;4.772;2023-04-24T06:41:01;100266.69;;;11.49;100.00
55490;BME280;44029;52.956;4.772;2023-04-24T06:43:26;100260.63;;;11.37;100.00
55490;BME280;44029;52.956;4.772;2023-04-24T06:45:51;100269.72;;;11.58;100.00
55490;BME280;44029;52.956;4.772;2023-04-24T06:48:17;100260.72;;;11.78;100.00
55490;BME280;44029;52.956;4.772;2023-04-24T06:50:42;100270.38;;;11.96;100.00
55490;BME280;44029;52.956;4.772;2023-04-24T06:53:08;100264.84;;;11.75;100.00
55490;BME280;44029;52.956;4.772;2023-04-24T06:55:36;100270.91;;;12.13;100.00
55490;BME280;44029;52.956;4.772;2023-04-24T06:58:01;100279.16;;;12.13;100.00
55490;BME280;44029;52.956;4.772;2023-04-24T07:00:26;100277.44;;;11.82;100.00
55490;BME280;44029;52.956;4.772;2023-04-24T07:02:52;100275.31;;;11.94;100.00
55490;BME280;44029;52.956;4.772;2023-04-24T07:05:17;100278.31;;;12.44;100.00
55490;BME280;44029;52.956;4.772;2023-04-24T07:07:46;100286.28;;;12.35;100.00
55490;BME280;44029;52.956;4.772;2023-04-24T07:10:12;100283.53;;;11.99;100.00
55490;BME280;44029;52.956;4.772;2023-04-24T07:12:38;100308.25;;;11.94;100.00
55490;BME280;44029;52.956;4.772;2023-04-24T07:15:04;100301.06;;;11.77;100.00
55490;BME280;44029;52.956;4.772;2023-04-24T07:17:30;100303.75;;;11.57;100.00
55490;BME280;44029;52.956;4.772;2023-04-24T07:19:55;100307.56;;;11.46;100.00
55490;BME280;44029;52.956;4.772;2023-04-24T07:22:20;100312.94;;;11.20;100.00
55490;BME280;44029;52.956;4.772;2023-04-24T07:24:46;100331.63;;;11.33;100.00
55490;BME280;44029;52.956;4.772;2023-04-24T07:27:11;100337.72;;;11.51;100.00
55490;BME280;44029;52.956;4.772;2023-04-24T07:29:37;100341.84;;;11.48;100.00
55490;BME280;44029;52.956;4.772;2023-04-24T07:32:03;100345.19;;;11.60;100.00
55490;BME280;44029;52.956;4.772;2023-04-24T07:34:29;100355.25;;;11.39;100.00
55490;BME280;44029;52.956;4.772;2023-04-24T07:36:54;100354.44;;;11.39;100.00
55490;BME280;44029;52.956;4.772;2023-04-24T07:39:19;100357.38;;;11.22;100.00
55490;BME280;44029;52.956;4.772;2023-04-24T07:41:45;100356.91;;;10.93;100.00
55490;BME280;44029;52.956;4.772;2023-04-24T07:44:10;100371.00;;;11.12;100.00
55490;BME280;44029;52.956;4.772;2023-04-24T07:46:35;100371.13;;;10.85;100.00
55490;BME280;44029;52.956;4.772;2023-04-24T07:49:01;100371.31;;;11.15;100.00
55490;BME280;44029;52.956;4.772;2023-04-24T07:51:26;100381.16;;;11.11;100.00
55490;BME280;44029;52.956;4.772;2023-04-24T07:53:56;100378.47;;;11.27;100.00
55490;BME280;44029;52.956;4.772;2023-04-24T07:56:21;100383.38;;;11.19;100.00
55490;BME280;44029;52.956;4.772;2023-04-24T07:58:47;100384.75;;;11.17;100.00
55490;BME280;44029;52.956;4.772;2023-04-24T08:01:12;100405.97;;;11.37;100.00
55490;BME280;44029;52.956;4.772;2023-04-24T08:03:38;100391.81;;;11.66;100.00
55490;BME280;44029;52.956;4.772;2023-04-24T08:06:03;100391.59;;;11.72;100.00
55490;BME280;44029;52.956;4.772;2023-04-24T08:08:29;100400.25;;;11.49;100.00
55490;BME280;44029;52.956;4.772;2023-04-24T08:10:54;100404.56;;;11.29;100.00
55490;BME280;44029;52.956;4.772;2023-04-24T08:13:20;100417.13;;;11.25;100.00
55490;BME280;44029;52.956;4.772;2023-04-24T08:15:45;100418.97;;;11.09;100.00
55490;BME280;44029;52.956;4.772;2023-04-24T08:18:11;100418.72;;;11.16;100.00
55490;BME280;44029;52.956;4.772;2023-04-24T08:20:37;100420.84;;;11.46;100.00
55490;BME280;44029;52.956;4.772;2023-04-24T08:23:03;100426.34;;;11.56;100.00
55490;BME280;44029;52.956;4.772;2023-04-24T08:25:28;100427.19;;;11.62;100.00
55490;BME280;44029;52.956;4.772;2023-04-24T08:27:53;100433.28;;;11.69;100.00
55490;BME280;44029;52.956;4.772;2023-04-24T08:30:19;100441.53;;;11.74;100.00
55490;BME280;44029;52.956;4.772;2023-04-24T08:32:45;100443.38;;;11.53;100.00
55490;BME280;44029;52.956;4.772;2023-04-24T08:35:11;100445.28;;;11.58;100.00
55490;BME280;44029;52.956;4.772;2023-04-24T08:37:37;100451.19;;;11.87;100.00
55490;BME280;44029;52.956;4.772;2023-04-24T08:40:06;100450.94;;;11.89;100.00
55490;BME280;44029;52.956;4.772;2023-04-24T08:42:34;100455.94;;;12.02;100.00
55490;BME280;44029;52.956;4.772;2023-04-24T08:45:02;100445.50;;;11.99;100.00
55490;BME280;44029;52.956;4.772;2023-04-24T08:47:28;100454.72;;;11.77;100.00
55490;BME280;44029;52.956;4.772;2023-04-24T08:49:54;100457.75;;;11.76;100.00
55490;BME280;44029;52.956;4.772;2023-04-24T08:52:20;100466.94;;;12.07;100.00
55490;BME280;44029;52.956;4.772;2023-04-24T08:54:47;100464.38;;;11.85;100.00
55490;BME280;44029;52.956;4.772;2023-04-24T08:57:14;100469.63;;;11.92;100.00
55490;BME280;44029;52.956;4.772;2023-04-24T08:59:40;100468.00;;;12.01;100.00
55490;BME280;44029;52.956;4.772;2023-04-24T09:02:06;100472.38;;;11.92;100.00
55490;BME280;44029;52.956;4.772;2023-04-24T09:04:35;100470.84;;;12.27;100.00
55490;BME280;44029;52.956;4.772;2023-04-24T09:07:01;100469.25;;;12.51;100.00
55490;BME280;44029;52.956;4.772;2023-04-24T09:09:30;100475.56;;;12.47;100.00
55490;BME280;44029;52.956;4.772;2023-04-24T09:11:56;100482.69;;;12.43;100.00
55490;BME280;44029;52.956;4.772;2023-04-24T09:14:23;100471.44;;;12.39;100.00
55490;BME280;44029;52.956;4.772;2023-04-24T09:16:49;100473.09;;;12.45;100.00
55490;BME280;44029;52.956;4.772;2023-04-24T09:19:14;100475.50;;;12.21;100.00
55490;BME280;44029;52.956;4.772;2023-04-24T09:21:40;100484.63;;;12.52;100.00
55490;BME280;44029;52.956;4.772;2023-04-24T09:24:14;100482.44;;;12.49;100.00
55490;BME280;44029;52.956;4.772;2023-04-24T09:26:39;100486.81;;;12.45;100.00
55490;BME280;44029;52.956;4.772;2023-04-24T09:29:05;100496.13;;;12.24;100.00
55490;BME280;44029;52.956;4.772;2023-04-24T09:31:30;100497.72;;;12.19;100.00
55490;BME280;44029;52.956;4.772;2023-04-24T09:36:35;100495.38;;;12.64;100.00
55490;BME280;44029;52.956;4.772;2023-04-24T09:39:05;100496.13;;;12.34;100.00
55490;BME280;44029;52.956;4.772;2023-04-24T09:41:33;100504.09;;;12.35;100.00
55490;BME280;44029;52.956;4.772;2023-04-24T09:44:14;100508.50;;;12.31;100.00
55490;BME280;44029;52.956;4.772;2023-04-24T09:46:41;100523.34;;;12.41;100.00
55490;BME280;44029;52.956;4.772;2023-04-24T09:49:08;100525.53;;;12.33;100.00
55490;BME280;44029;52.956;4.772;2023-04-24T09:51:36;100527.31;;;12.02;100.00
55490;BME280;44029;52.956;4.772;2023-04-24T09:54:03;100538.38;;;12.12;100.00
55490;BME280;44029;52.956;4.772;2023-04-24T09:56:32;100545.53;;;12.29;100.00
55490;BME280;44029;52.956;4.772;2023-04-24T09:59:07;100544.25;;;12.52;100.00
55490;BME280;44029;52.956;4.772;2023-04-24T10:01:33;100545.50;;;12.13;100.00
55490;BME280;44029;52.956;4.772;2023-04-24T10:03:58;100537.94;;;11.88;100.00
55490;BME280;44029;52.956;4.772;2023-04-24T10:06:32;100542.47;;;12.10;100.00
55490;BME280;44029;52.956;4.772;2023-04-24T10:08:58;100552.72;;;11.82;100.00
55490;BME280;44029;52.956;4.772;2023-04-24T10:11:26;100549.44;;;12.38;100.00
55490;BME280;44029;52.956;4.772;2023-04-24T10:13:52;100560.63;;;12.16;100.00
55490;BME280;44029;52.956;4.772;2023-04-24T10:16:18;100565.53;;;12.14;100.00
55490;BME280;44029;52.956;4.772;2023-04-24T10:18:45;100556.66;;;11.91;100.00
55490;BME280;44029;52.956;4.772;2023-04-24T10:21:10;100554.59;;;11.76;100.00
55490;BME280;44029;52.956;4.772;2023-04-24T10:23:36;100560.28;;;12.02;100.00
55490;BME280;44029;52.956;4.772;2023-04-24T10:26:02;100560.38;;;12.23;100.00
55490;BME280;44029;52.956;4.772;2023-04-24T10:28:30;100559.94;;;12.51;100.00
55490;BME280;44029;52.956;4.772;2023-04-24T10:30:57;100565.31;;;12.21;100.00
55490;BME280;44029;52.956;4.772;2023-04-24T10:33:23;100553.41;;;12.93;100.00
55490;BME280;44029;52.956;4.772;2023-04-24T10:35:50;100558.09;;;13.13;100.00
55490;BME280;44029;52.956;4.772;2023-04-24T10:38:21;100555.13;;;13.46;100.00
55490;BME280;44029;52.956;4.772;2023-04-24T10:40:49;100556.47;;;13.48;100.00
55490;BME280;44029;52.956;4.772;2023-04-24T10:43:17;100568.31;;;13.54;100.00
55490;BME280;44029;52.956;4.772;2023-04-24T10:46:03;100561.13;;;13.58;100.00
55490;BME280;44029;52.956;4.772;2023-04-24T10:48:29;100577.94;;;13.67;100.00
55490;BME280;44029;52.956;4.772;2023-04-24T10:50:55;100574.91;;;13.58;100.00
55490;BME280;44029;52.956;4.772;2023-04-24T10:53:23;100591.72;;;13.51;100.00
55490;BME280;44029;52.956;4.772;2023-04-24T10:55:57;100588.91;;;13.15;100.00
55490;BME280;44029;52.956;4.772;2023-04-24T10:58:24;100588.91;;;13.21;100.00
55490;BME280;44029;52.956;4.772;2023-04-24T11:01:00;100591.38;;;13.17;100.00
55490;BME280;44029;52.956;4.772;2023-04-24T11:03:31;100596.88;;;13.12;100.00
55490;BME280;44029;52.956;4.772;2023-04-24T11:06:02;100598.53;;;13.08;100.00
55490;BME280;44029;52.956;4.772;2023-04-24T11:08:36;100596.28;;;12.89;100.00
55490;BME280;44029;52.956;4.772;2023-04-24T11:11:07;100584.53;;;13.20;100.00
55490;BME280;44029;52.956;4.772;2023-04-24T11:21:41;100593.03;;;13.90;100.00
55490;BME280;44029;52.956;4.772;2023-04-24T11:24:30;100593.56;;;13.97;100.00
55490;BME280;44029;52.956;4.772;2023-04-24T11:27:00;100598.00;;;13.72;100.00
55490;BME280;44029;52.956;4.772;2023-04-24T11:35:23;100599.91;;;13.92;100.00
55490;BME280;44029;52.956;4.772;2023-04-24T11:37:53;100612.91;;;13.61;100.00
55490;BME280;44029;52.956;4.772;2023-04-24T11:40:20;100622.75;;;14.08;100.00
55490;BME280;44029;52.956;4.772;2023-04-24T11:42:49;100613.09;;;14.06;100.00
55490;BME280;44029;52.956;4.772;2023-04-24T11:45:15;100618.97;;;13.53;100.00
55490;BME280;44029;52.956;4.772;2023-04-24T11:47:43;100621.69;;;13.63;100.00
55490;BME280;44029;52.956;4.772;2023-04-24T11:50:11;100621.44;;;13.65;100.00
55490;BME280;44029;52.956;4.772;2023-04-24T11:52:39;100611.97;;;14.17;100.00
55490;BME280;44029;52.956;4.772;2023-04-24T11:55:07;100629.28;;;14.28;100.00
55490;BME280;44029;52.956;4.772;2023-04-24T11:57:33;100621.66;;;13.99;100.00
55490;BME280;44029;52.956;4.772;2023-04-24T12:00:03;100622.75;;;14.08;100.00
55490;BME280;44029;52.956;4.772;2023-04-24T12:02:30;100621.13;;;13.77;100.00
55490;BME280;44029;52.956;4.772;2023-04-24T12:04:55;100622.22;;;13.96;100.00
55490;BME280;44029;52.956;4.772;2023-04-24T12:07:22;100624.63;;;14.23;100.00
55490;BME280;44029;52.956;4.772;2023-04-24T12:09:54;100632.59;;;14.35;100.00
55490;BME280;44029;52.956;4.772;2023-04-24T12:12:24;100643.13;;;14.13;100.00
55490;BME280;44029;52.956;4.772;2023-04-24T12:14:54;100636.69;;;14.38;100.00
55490;BME280;44029;52.956;4.772;2023-04-24T12:19:51;100645.91;;;13.87;100.00
55490;BME280;44029;52.956;4.772;2023-04-24T12:22:16;100651.41;;;13.77;100.00
55490;BME280;44029;52.956;4.772;2023-04-24T12:25:02;100654.44;;;13.85;100.00
55490;BME280;44029;52.956;4.772;2023-04-24T12:27:32;100650.84;;;14.10;100.00
55490;BME280;44029;52.956;4.772;2023-04-24T12:30:03;100647.81;;;14.02;100.00
55490;BME280;44029;52.956;4.772;2023-04-24T12:32:30;100674.53;;;13.86;100.00
55490;BME280;44029;52.956;4.772;2023-04-24T12:34:56;100655.50;;;14.15;100.00
55490;BME280;44029;52.956;4.772;2023-04-24T12:37:26;100664.03;;;14.14;100.00
55490;BME280;44029;52.956;4.772;2023-04-24T12:40:07;100665.94;;;14.34;100.00
55490;BME280;44029;52.956;4.772;2023-04-24T12:42:33;100668.19;;;14.16;100.00
55490;BME280;44029;52.956;4.772;2023-04-24T12:45:01;100675.66;;;13.85;100.00
55490;BME280;44029;52.956;4.772;2023-04-24T12:47:27;100681.16;;;13.80;100.00
55490;BME280;44029;52.956;4.772;2023-04-24T12:49:53;100692.47;;;13.68;100.00
55490;BME280;44029;52.956;4.772;2023-04-24T12:52:23;100683.06;;;14.00;100.00
55490;BME280;44029;52.956;4.772;2023-04-24T12:54:50;100685.81;;;14.10;100.00
55490;BME280;44029;52.956;4.772;2023-04-24T12:57:17;100682.25;;;13.84;100.00
55490;BME280;44029;52.956;4.772;2023-04-24T12:59:42;100696.03;;;13.99;100.00